sensor_id;sensor_type;location;lat;lon;timestamp;P1;durP1;ratioP1;P2;durP2;ratioP2
76495;SDS011;65329;52.544;4.662;2023-03-14T00:00:25;11.93;;;1.98;;
76495;SDS011;65329;52.544;4.662;2023-03-14T00:02:53;15.85;;;2.55;;
76495;SDS011;65329;52.544;4.662;2023-03-14T00:05:20;15.95;;;4.03;;
76495;SDS011;65329;52.544;4.662;2023-03-14T00:07:55;9.13;;;1.90;;
76495;SDS011;65329;52.544;4.662;2023-03-14T00:10:24;12.50;;;2.35;;
76495;SDS011;65329;52.544;4.662;2023-03-14T00:12:51;9.10;;;2.08;;
76495;SDS011;65329;52.544;4.662;2023-03-14T00:15:19;17.70;;;2.72;;
76495;SDS011;65329;52.544;4.662;2023-03-14T00:17:47;19.70;;;2.67;;
76495;SDS011;65329;52.544;4.662;2023-03-14T00:20:14;12.43;;;2.35;;
76495;SDS011;65329;52.544;4.662;2023-03-14T00:22:41;15.18;;;2.30;;
76495;SDS011;65329;52.544;4.662;2023-03-14T00:25:09;19.65;;;3.70;;
76495;SDS011;65329;52.544;4.662;2023-03-14T00:27:37;15.05;;;2.10;;
76495;SDS011;65329;52.544;4.662;2023-03-14T00:30:05;15.73;;;2.72;;
76495;SDS011;65329;52.544;4.662;2023-03-14T00:32:34;18.05;;;2.95;;
76495;SDS011;65329;52.544;4.662;2023-03-14T00:35:02;18.58;;;2.20;;
76495;SDS011;65329;52.544;4.662;2023-03-14T00:37:30;13.90;;;3.53;;
76495;SDS011;65329;52.544;4.662;2023-03-14T00:39:57;11.35;;;1.80;;
76495;SDS011;65329;52.544;4.662;2023-03-14T00:42:25;17.40;;;2.13;;
76495;SDS011;65329;52.544;4.662;2023-03-14T00:44:52;23.25;;;2.25;;
76495;SDS011;65329;52.544;4.662;2023-03-14T00:47:20;12.45;;;2.65;;
76495;SDS011;65329;52.544;4.662;2023-03-14T00:49:47;12.65;;;2.22;;
76495;SDS011;65329;52.544;4.662;2023-03-14T00:52:26;13.75;;;2.42;;
76495;SDS011;65329;52.544;4.662;2023-03-14T00:54:53;10.25;;;1.60;;
76495;SDS011;65329;52.544;4.662;2023-03-14T00:57:20;15.95;;;2.08;;
76495;SDS011;65329;52.544;4.662;2023-03-14T00:59:47;14.63;;;1.67;;
76495;SDS011;65329;52.544;4.662;2023-03-14T01:02:15;13.77;;;2.25;;
76495;SDS011;65329;52.544;4.662;2023-03-14T01:04:42;14.32;;;1.85;;
76495;SDS011;65329;52.544;4.662;2023-03-14T01:07:10;15.90;;;3.40;;
76495;SDS011;65329;52.544;4.662;2023-03-14T01:09:38;13.85;;;2.10;;
76495;SDS011;65329;52.544;4.662;2023-03-14T01:12:05;18.02;;;2.15;;
76495;SDS011;65329;52.544;4.662;2023-03-14T01:14:32;8.55;;;1.13;;
76495;SDS011;65329;52.544;4.662;2023-03-14T01:16:59;9.00;;;2.05;;
76495;SDS011;65329;52.544;4.662;2023-03-14T01:19:29;21.88;;;4.05;;
76495;SDS011;65329;52.544;4.662;2023-03-14T01:21:58;18.20;;;2.95;;
76495;SDS011;65329;52.544;4.662;2023-03-14T01:24:28;17.88;;;3.33;;
76495;SDS011;65329;52.544;4.662;2023-03-14T01:26:55;13.00;;;3.47;;
76495;SDS011;65329;52.544;4.662;2023-03-14T01:29:23;17.85;;;3.53;;
76495;SDS011;65329;52.544;4.662;2023-03-14T01:31:52;12.38;;;2.42;;
76495;SDS011;65329;52.544;4.662;2023-03-14T01:34:19;18.27;;;2.28;;
76495;SDS011;65329;52.544;4.662;2023-03-14T01:36:48;19.75;;;3.42;;
76495;SDS011;65329;52.544;4.662;2023-03-14T01:39:15;15.88;;;2.83;;
76495;SDS011;65329;52.544;4.662;2023-03-14T01:41:42;21.10;;;4.00;;
76495;SDS011;65329;52.544;4.662;2023-03-14T01:44:12;21.67;;;2.85;;
76495;SDS011;65329;52.544;4.662;2023-03-14T01:46:41;19.50;;;3.05;;
76495;SDS011;65329;52.544;4.662;2023-03-14T01:52:11;16.17;;;2.97;;
76495;SDS011;65329;52.544;4.662;2023-03-14T01:54:44;23.25;;;4.05;;
76495;SDS011;65329;52.544;4.662;2023-03-14T01:57:16;20.65;;;3.92;;
76495;SDS011;65329;52.544;4.662;2023-03-14T02:00:32;21.67;;;3.28;;
76495;SDS011;65329;52.544;4.662;2023-03-14T02:02:43;16.25;;;3.45;;
76495;SDS011;65329;52.544;4.662;2023-03-14T02:05:16;18.13;;;3.60;;
76495;SDS011;65329;52.544;4.662;2023-03-14T02:07:54;16.35;;;3.05;;
76495;SDS011;65329;52.544;4.662;2023-03-14T02:10:35;18.00;;;2.63;;
76495;SDS011;65329;52.544;4.662;2023-03-14T02:13:08;20.10;;;3.15;;
76495;SDS011;65329;52.544;4.662;2023-03-14T02:15:55;22.90;;;3.53;;
76495;SDS011;65329;52.544;4.662;2023-03-14T02:18:54;21.80;;;3.55;;
76495;SDS011;65329;52.544;4.662;2023-03-14T02:21:55;28.77;;;3.45;;
76495;SDS011;65329;52.544;4.662;2023-03-14T02:24:38;20.48;;;2.40;;
76495;SDS011;65329;52.544;4.662;2023-03-14T02:29:51;11.35;;;2.47;;
76495;SDS011;65329;52.544;4.662;2023-03-14T02:32:20;19.15;;;3.67;;
76495;SDS011;65329;52.544;4.662;2023-03-14T02:34:52;19.25;;;4.05;;
76495;SDS011;65329;52.544;4.662;2023-03-14T02:37:24;16.83;;;2.83;;
76495;SDS011;65329;52.544;4.662;2023-03-14T02:39:57;14.15;;;2.90;;
76495;SDS011;65329;52.544;4.662;2023-03-14T02:42:25;16.25;;;3.00;;
76495;SDS011;65329;52.544;4.662;2023-03-14T02:47:39;17.38;;;3.28;;
76495;SDS011;65329;52.544;4.662;2023-03-14T02:50:15;11.18;;;2.85;;
76495;SDS011;65329;52.544;4.662;2023-03-14T02:52:46;15.18;;;2.45;;
76495;SDS011;65329;52.544;4.662;2023-03-14T02:55:13;16.67;;;3.03;;
76495;SDS011;65329;52.544;4.662;2023-03-14T02:57:42;17.23;;;2.90;;
76495;SDS011;65329;52.544;4.662;2023-03-14T03:00:10;9.68;;;1.75;;
76495;SDS011;65329;52.544;4.662;2023-03-14T03:02:38;15.90;;;2.40;;
76495;SDS011;65329;52.544;4.662;2023-03-14T03:05:05;18.02;;;3.13;;
76495;SDS011;65329;52.544;4.662;2023-03-14T03:07:34;15.93;;;2.28;;
76495;SDS011;65329;52.544;4.662;2023-03-14T03:10:01;14.65;;;3.10;;
76495;SDS011;65329;52.544;4.662;2023-03-14T03:12:29;12.02;;;2.10;;
76495;SDS011;65329;52.544;4.662;2023-03-14T03:14:57;15.15;;;2.90;;
76495;SDS011;65329;52.544;4.662;2023-03-14T03:17:24;13.23;;;2.67;;
76495;SDS011;65329;52.544;4.662;2023-03-14T03:19:51;15.13;;;3.05;;
76495;SDS011;65329;52.544;4.662;2023-03-14T03:22:18;15.32;;;2.13;;
76495;SDS011;65329;52.544;4.662;2023-03-14T03:24:45;7.25;;;1.55;;
76495;SDS011;65329;52.544;4.662;2023-03-14T03:27:12;15.15;;;2.22;;
76495;SDS011;65329;52.544;4.662;2023-03-14T03:29:40;6.22;;;2.13;;
76495;SDS011;65329;52.544;4.662;2023-03-14T03:32:07;10.00;;;1.77;;
76495;SDS011;65329;52.544;4.662;2023-03-14T03:34:34;8.10;;;1.63;;
76495;SDS011;65329;52.544;4.662;2023-03-14T03:37:01;9.48;;;1.75;;
76495;SDS011;65329;52.544;4.662;2023-03-14T03:39:32;11.15;;;1.98;;
76495;SDS011;65329;52.544;4.662;2023-03-14T03:41:59;13.20;;;2.22;;
76495;SDS011;65329;52.544;4.662;2023-03-14T03:44:27;14.57;;;2.00;;
76495;SDS011;65329;52.544;4.662;2023-03-14T03:46:55;11.20;;;1.80;;
76495;SDS011;65329;52.544;4.662;2023-03-14T03:49:22;10.48;;;2.25;;
76495;SDS011;65329;52.544;4.662;2023-03-14T03:51:49;11.55;;;2.67;;
76495;SDS011;65329;52.544;4.662;2023-03-14T03:56:49;9.13;;;2.20;;
76495;SDS011;65329;52.544;4.662;2023-03-14T03:59:16;8.93;;;2.00;;
76495;SDS011;65329;52.544;4.662;2023-03-14T04:01:44;15.73;;;2.20;;
76495;SDS011;65329;52.544;4.662;2023-03-14T04:04:12;9.60;;;2.40;;
76495;SDS011;65329;52.544;4.662;2023-03-14T04:06:40;16.25;;;3.13;;
76495;SDS011;65329;52.544;4.662;2023-03-14T04:09:09;6.07;;;2.47;;
76495;SDS011;65329;52.544;4.662;2023-03-14T04:11:43;15.50;;;2.97;;
76495;SDS011;65329;52.544;4.662;2023-03-14T04:14:19;10.65;;;2.90;;
76495;SDS011;65329;52.544;4.662;2023-03-14T04:16:53;12.10;;;2.55;;
76495;SDS011;65329;52.544;4.662;2023-03-14T04:19:20;9.88;;;2.45;;
76495;SDS011;65329;52.544;4.662;2023-03-14T04:21:49;13.27;;;2.97;;
76495;SDS011;65329;52.544;4.662;2023-03-14T04:24:18;10.32;;;2.25;;
76495;SDS011;65329;52.544;4.662;2023-03-14T04:26:47;17.50;;;2.58;;
76495;SDS011;65329;52.544;4.662;2023-03-14T04:29:14;10.50;;;2.47;;
76495;SDS011;65329;52.544;4.662;2023-03-14T04:31:43;12.70;;;2.28;;
76495;SDS011;65329;52.544;4.662;2023-03-14T04:34:11;20.90;;;3.05;;
76495;SDS011;65329;52.544;4.662;2023-03-14T04:36:44;15.68;;;3.90;;
76495;SDS011;65329;52.544;4.662;2023-03-14T04:39:16;14.50;;;3.20;;
76495;SDS011;65329;52.544;4.662;2023-03-14T04:41:51;14.75;;;3.55;;
76495;SDS011;65329;52.544;4.662;2023-03-14T04:44:19;21.05;;;3.45;;
76495;SDS011;65329;52.544;4.662;2023-03-14T04:46:49;6.93;;;2.10;;
76495;SDS011;65329;52.544;4.662;2023-03-14T04:49:18;17.13;;;2.95;;
76495;SDS011;65329;52.544;4.662;2023-03-14T04:51:45;18.92;;;2.90;;
76495;SDS011;65329;52.544;4.662;2023-03-14T04:54:13;15.95;;;3.70;;
76495;SDS011;65329;52.544;4.662;2023-03-14T04:56:40;18.58;;;3.03;;
76495;SDS011;65329;52.544;4.662;2023-03-14T04:59:07;14.23;;;3.50;;
76495;SDS011;65329;52.544;4.662;2023-03-14T05:01:37;13.90;;;2.53;;
76495;SDS011;65329;52.544;4.662;2023-03-14T05:04:22;16.17;;;3.25;;
76495;SDS011;65329;52.544;4.662;2023-03-14T05:07:21;13.23;;;3.30;;
76495;SDS011;65329;52.544;4.662;2023-03-14T05:09:57;8.77;;;1.95;;
76495;SDS011;65329;52.544;4.662;2023-03-14T05:12:43;10.20;;;2.25;;
76495;SDS011;65329;52.544;4.662;2023-03-14T05:15:30;8.50;;;1.60;;
76495;SDS011;65329;52.544;4.662;2023-03-14T05:18:20;4.15;;;0.90;;
76495;SDS011;65329;52.544;4.662;2023-03-14T05:20:54;5.32;;;1.05;;
76495;SDS011;65329;52.544;4.662;2023-03-14T05:23:24;6.55;;;0.82;;
76495;SDS011;65329;52.544;4.662;2023-03-14T05:26:03;4.38;;;1.10;;
76495;SDS011;65329;52.544;4.662;2023-03-14T05:28:40;7.90;;;1.77;;
76495;SDS011;65329;52.544;4.662;2023-03-14T05:31:18;3.90;;;0.80;;
76495;SDS011;65329;52.544;4.662;2023-03-14T05:34:14;8.75;;;1.10;;
76495;SDS011;65329;52.544;4.662;2023-03-14T05:36:56;6.80;;;1.13;;
76495;SDS011;65329;52.544;4.662;2023-03-14T05:39:55;5.78;;;1.00;;
76495;SDS011;65329;52.544;4.662;2023-03-14T05:42:40;6.20;;;0.73;;
76495;SDS011;65329;52.544;4.662;2023-03-14T05:45:30;4.28;;;1.60;;
76495;SDS011;65329;52.544;4.662;2023-03-14T05:48:23;9.63;;;2.00;;
76495;SDS011;65329;52.544;4.662;2023-03-14T05:51:03;6.22;;;0.95;;
76495;SDS011;65329;52.544;4.662;2023-03-14T05:53:56;6.35;;;0.77;;
76495;SDS011;65329;52.544;4.662;2023-03-14T05:56:38;7.22;;;1.10;;
76495;SDS011;65329;52.544;4.662;2023-03-14T05:59:24;6.32;;;1.38;;
76495;SDS011;65329;52.544;4.662;2023-03-14T06:02:16;7.00;;;1.50;;
76495;SDS011;65329;52.544;4.662;2023-03-14T06:04:53;4.88;;;0.95;;
76495;SDS011;65329;52.544;4.662;2023-03-14T06:07:21;5.43;;;1.15;;
76495;SDS011;65329;52.544;4.662;2023-03-14T06:09:49;6.82;;;1.50;;
76495;SDS011;65329;52.544;4.662;2023-03-14T06:12:18;5.22;;;0.82;;
76495;SDS011;65329;52.544;4.662;2023-03-14T06:14:45;9.50;;;1.30;;
76495;SDS011;65329;52.544;4.662;2023-03-14T06:17:17;5.82;;;1.00;;
76495;SDS011;65329;52.544;4.662;2023-03-14T06:19:51;11.73;;;1.90;;
76495;SDS011;65329;52.544;4.662;2023-03-14T06:22:18;5.80;;;1.10;;
76495;SDS011;65329;52.544;4.662;2023-03-14T06:24:46;8.25;;;1.10;;
76495;SDS011;65329;52.544;4.662;2023-03-14T06:27:25;4.32;;;0.32;;
76495;SDS011;65329;52.544;4.662;2023-03-14T06:29:54;7.80;;;1.10;;
76495;SDS011;65329;52.544;4.662;2023-03-14T06:32:24;5.43;;;1.10;;
76495;SDS011;65329;52.544;4.662;2023-03-14T06:34:54;5.07;;;0.80;;
76495;SDS011;65329;52.544;4.662;2023-03-14T06:37:22;4.18;;;0.70;;
76495;SDS011;65329;52.544;4.662;2023-03-14T06:39:50;5.43;;;0.93;;
76495;SDS011;65329;52.544;4.662;2023-03-14T06:42:31;6.32;;;0.90;;
76495;SDS011;65329;52.544;4.662;2023-03-14T06:44:58;10.95;;;1.52;;
76495;SDS011;65329;52.544;4.662;2023-03-14T06:47:25;10.93;;;1.42;;
76495;SDS011;65329;52.544;4.662;2023-03-14T06:49:53;8.05;;;0.98;;
76495;SDS011;65329;52.544;4.662;2023-03-14T06:52:21;8.13;;;2.90;;
76495;SDS011;65329;52.544;4.662;2023-03-14T06:54:48;7.47;;;1.52;;
76495;SDS011;65329;52.544;4.662;2023-03-14T06:57:19;8.35;;;0.82;;
76495;SDS011;65329;52.544;4.662;2023-03-14T06:59:50;6.57;;;0.90;;
76495;SDS011;65329;52.544;4.662;2023-03-14T07:02:17;5.68;;;1.02;;
76495;SDS011;65329;52.544;4.662;2023-03-14T07:04:47;6.00;;;1.08;;
76495;SDS011;65329;52.544;4.662;2023-03-14T07:07:15;7.95;;;1.05;;
76495;SDS011;65329;52.544;4.662;2023-03-14T07:09:43;1.88;;;0.73;;
76495;SDS011;65329;52.544;4.662;2023-03-14T07:12:10;5.20;;;0.90;;
76495;SDS011;65329;52.544;4.662;2023-03-14T07:14:38;3.17;;;0.52;;
76495;SDS011;65329;52.544;4.662;2023-03-14T07:17:05;3.35;;;0.40;;
76495;SDS011;65329;52.544;4.662;2023-03-14T07:19:33;5.70;;;0.47;;
76495;SDS011;65329;52.544;4.662;2023-03-14T07:22:00;9.98;;;1.10;;
76495;SDS011;65329;52.544;4.662;2023-03-14T07:24:27;6.43;;;0.55;;
76495;SDS011;65329;52.544;4.662;2023-03-14T07:26:54;6.53;;;0.47;;
76495;SDS011;65329;52.544;4.662;2023-03-14T07:29:21;3.55;;;0.60;;
76495;SDS011;65329;52.544;4.662;2023-03-14T07:31:49;4.25;;;0.60;;
76495;SDS011;65329;52.544;4.662;2023-03-14T07:34:18;2.45;;;0.30;;
76495;SDS011;65329;52.544;4.662;2023-03-14T07:36:47;14.73;;;1.20;;
76495;SDS011;65329;52.544;4.662;2023-03-14T07:39:14;5.13;;;0.75;;
76495;SDS011;65329;52.544;4.662;2023-03-14T07:41:41;7.22;;;0.50;;
76495;SDS011;65329;52.544;4.662;2023-03-14T07:44:20;2.60;;;0.45;;
76495;SDS011;65329;52.544;4.662;2023-03-14T07:46:47;2.97;;;0.50;;
76495;SDS011;65329;52.544;4.662;2023-03-14T07:49:14;7.63;;;0.70;;
76495;SDS011;65329;52.544;4.662;2023-03-14T07:51:41;6.43;;;0.52;;
76495;SDS011;65329;52.544;4.662;2023-03-14T07:54:10;8.50;;;1.33;;
76495;SDS011;65329;52.544;4.662;2023-03-14T07:56:37;7.35;;;0.88;;
76495;SDS011;65329;52.544;4.662;2023-03-14T07:59:04;5.28;;;1.10;;
76495;SDS011;65329;52.544;4.662;2023-03-14T08:01:32;8.68;;;0.88;;
76495;SDS011;65329;52.544;4.662;2023-03-14T08:03:59;5.80;;;1.02;;
76495;SDS011;65329;52.544;4.662;2023-03-14T08:06:27;8.45;;;0.85;;
76495;SDS011;65329;52.544;4.662;2023-03-14T08:08:54;9.45;;;1.23;;
76495;SDS011;65329;52.544;4.662;2023-03-14T08:11:21;7.63;;;1.35;;
76495;SDS011;65329;52.544;4.662;2023-03-14T08:13:47;4.85;;;1.10;;
76495;SDS011;65329;52.544;4.662;2023-03-14T08:16:16;11.07;;;1.42;;
76495;SDS011;65329;52.544;4.662;2023-03-14T08:18:44;8.13;;;1.17;;
76495;SDS011;65329;52.544;4.662;2023-03-14T08:21:12;8.02;;;1.50;;
76495;SDS011;65329;52.544;4.662;2023-03-14T08:23:39;13.98;;;1.52;;
76495;SDS011;65329;52.544;4.662;2023-03-14T08:26:06;8.50;;;1.80;;
76495;SDS011;65329;52.544;4.662;2023-03-14T08:28:36;11.02;;;1.63;;
76495;SDS011;65329;52.544;4.662;2023-03-14T08:31:03;9.13;;;1.42;;
76495;SDS011;65329;52.544;4.662;2023-03-14T08:33:30;11.48;;;1.35;;
76495;SDS011;65329;52.544;4.662;2023-03-14T08:35:58;15.32;;;1.35;;
76495;SDS011;65329;52.544;4.662;2023-03-14T08:38:26;7.68;;;1.52;;
76495;SDS011;65329;52.544;4.662;2023-03-14T08:40:58;12.05;;;1.50;;
76495;SDS011;65329;52.544;4.662;2023-03-14T08:43:26;12.55;;;1.27;;
76495;SDS011;65329;52.544;4.662;2023-03-14T08:45:59;8.15;;;1.38;;
76495;SDS011;65329;52.544;4.662;2023-03-14T08:48:27;12.82;;;1.83;;
76495;SDS011;65329;52.544;4.662;2023-03-14T08:50:56;11.70;;;1.90;;
76495;SDS011;65329;52.544;4.662;2023-03-14T08:53:30;12.57;;;2.42;;
76495;SDS011;65329;52.544;4.662;2023-03-14T08:55:57;13.73;;;2.80;;
76495;SDS011;65329;52.544;4.662;2023-03-14T08:58:24;12.00;;;1.92;;
76495;SDS011;65329;52.544;4.662;2023-03-14T09:00:51;13.40;;;1.65;;
76495;SDS011;65329;52.544;4.662;2023-03-14T09:03:19;13.07;;;2.75;;
76495;SDS011;65329;52.544;4.662;2023-03-14T09:05:50;16.05;;;1.70;;
76495;SDS011;65329;52.544;4.662;2023-03-14T09:08:18;13.02;;;2.92;;
76495;SDS011;65329;52.544;4.662;2023-03-14T09:10:45;14.02;;;2.20;;
76495;SDS011;65329;52.544;4.662;2023-03-14T09:13:18;17.98;;;2.20;;
76495;SDS011;65329;52.544;4.662;2023-03-14T09:15:49;19.60;;;2.88;;
76495;SDS011;65329;52.544;4.662;2023-03-14T09:18:17;12.02;;;2.03;;
76495;SDS011;65329;52.544;4.662;2023-03-14T09:20:45;11.95;;;3.17;;
76495;SDS011;65329;52.544;4.662;2023-03-14T09:23:14;13.98;;;2.00;;
76495;SDS011;65329;52.544;4.662;2023-03-14T09:25:41;13.88;;;2.30;;
76495;SDS011;65329;52.544;4.662;2023-03-14T09:28:08;15.15;;;2.88;;
76495;SDS011;65329;52.544;4.662;2023-03-14T09:30:35;10.82;;;1.58;;
76495;SDS011;65329;52.544;4.662;2023-03-14T09:33:02;6.78;;;1.23;;
76495;SDS011;65329;52.544;4.662;2023-03-14T09:35:29;13.90;;;1.77;;
76495;SDS011;65329;52.544;4.662;2023-03-14T09:37:56;10.93;;;1.70;;
76495;SDS011;65329;52.544;4.662;2023-03-14T09:40:23;9.25;;;2.08;;
76495;SDS011;65329;52.544;4.662;2023-03-14T09:42:50;13.00;;;2.20;;
76495;SDS011;65329;52.544;4.662;2023-03-14T09:45:23;9.63;;;1.60;;
76495;SDS011;65329;52.544;4.662;2023-03-14T09:47:55;12.82;;;2.92;;
76495;SDS011;65329;52.544;4.662;2023-03-14T09:50:25;12.77;;;1.50;;
76495;SDS011;65329;52.544;4.662;2023-03-14T09:53:01;15.73;;;2.05;;
76495;SDS011;65329;52.544;4.662;2023-03-14T09:55:31;7.55;;;1.20;;
76495;SDS011;65329;52.544;4.662;2023-03-14T09:58:02;15.13;;;1.55;;
76495;SDS011;65329;52.544;4.662;2023-03-14T10:00:37;11.63;;;2.60;;
76495;SDS011;65329;52.544;4.662;2023-03-14T10:05:38;12.68;;;2.00;;
76495;SDS011;65329;52.544;4.662;2023-03-14T10:08:10;7.43;;;1.45;;
76495;SDS011;65329;52.544;4.662;2023-03-14T10:10:39;6.93;;;1.30;;
76495;SDS011;65329;52.544;4.662;2023-03-14T10:13:23;11.13;;;1.40;;
76495;SDS011;65329;52.544;4.662;2023-03-14T10:18:22;8.15;;;2.25;;
76495;SDS011;65329;52.544;4.662;2023-03-14T10:21:06;10.10;;;2.03;;
76495;SDS011;65329;52.544;4.662;2023-03-14T10:23:43;9.77;;;1.63;;
76495;SDS011;65329;52.544;4.662;2023-03-14T10:26:14;6.97;;;1.67;;
76495;SDS011;65329;52.544;4.662;2023-03-14T10:28:44;10.95;;;1.40;;
76495;SDS011;65329;52.544;4.662;2023-03-14T10:31:18;7.80;;;1.50;;
76495;SDS011;65329;52.544;4.662;2023-03-14T10:33:58;6.65;;;1.42;;
76495;SDS011;65329;52.544;4.662;2023-03-14T10:36:27;5.43;;;1.10;;
76495;SDS011;65329;52.544;4.662;2023-03-14T10:41:48;6.20;;;1.40;;
76495;SDS011;65329;52.544;4.662;2023-03-14T10:44:20;7.88;;;1.02;;
76495;SDS011;65329;52.544;4.662;2023-03-14T10:46:56;6.20;;;1.00;;
76495;SDS011;65329;52.544;4.662;2023-03-14T10:49:33;6.72;;;0.90;;
76495;SDS011;65329;52.544;4.662;2023-03-14T10:52:24;3.67;;;0.93;;
76495;SDS011;65329;52.544;4.662;2023-03-14T10:55:23;4.40;;;1.00;;
76495;SDS011;65329;52.544;4.662;2023-03-14T10:57:52;10.07;;;1.30;;
76495;SDS011;65329;52.544;4.662;2023-03-14T11:00:21;9.05;;;1.35;;
76495;SDS011;65329;52.544;4.662;2023-03-14T11:11:20;4.45;;;1.27;;
76495;SDS011;65329;52.544;4.662;2023-03-14T11:27:40;6.38;;;0.95;;
76495;SDS011;65329;52.544;4.662;2023-03-14T11:30:17;7.05;;;0.85;;
76495;SDS011;65329;52.544;4.662;2023-03-14T11:38:48;3.78;;;0.90;;
76495;SDS011;65329;52.544;4.662;2023-03-14T11:41:28;4.47;;;0.75;;
76495;SDS011;65329;52.544;4.662;2023-03-14T11:44:10;8.27;;;1.50;;
76495;SDS011;65329;52.544;4.662;2023-03-14T11:46:42;6.40;;;0.95;;
76495;SDS011;65329;52.544;4.662;2023-03-14T11:52:05;5.68;;;0.88;;
76495;SDS011;65329;52.544;4.662;2023-03-14T11:57:19;9.10;;;1.00;;
76495;SDS011;65329;52.544;4.662;2023-03-14T12:13:36;4.65;;;1.00;;
76495;SDS011;65329;52.544;4.662;2023-03-14T12:16:06;4.43;;;0.95;;
76495;SDS011;65329;52.544;4.662;2023-03-14T12:18:49;4.85;;;1.10;;
76495;SDS011;65329;52.544;4.662;2023-03-14T12:21:17;5.47;;;1.80;;
76495;SDS011;65329;52.544;4.662;2023-03-14T12:23:51;7.78;;;1.40;;
76495;SDS011;65329;52.544;4.662;2023-03-14T12:26:25;6.57;;;0.95;;
76495;SDS011;65329;52.544;4.662;2023-03-14T12:34:02;5.22;;;0.60;;
76495;SDS011;65329;52.544;4.662;2023-03-14T12:36:49;3.17;;;0.52;;
76495;SDS011;65329;52.544;4.662;2023-03-14T12:49:45;4.40;;;0.90;;
76495;SDS011;65329;52.544;4.662;2023-03-14T12:52:22;6.35;;;2.22;;
76495;SDS011;65329;52.544;4.662;2023-03-14T12:57:35;3.15;;;1.02;;
76495;SDS011;65329;52.544;4.662;2023-03-14T13:00:54;5.80;;;1.23;;
76495;SDS011;65329;52.544;4.662;2023-03-14T13:03:22;7.00;;;0.70;;
76495;SDS011;65329;52.544;4.662;2023-03-14T13:06:01;3.33;;;1.23;;
76495;SDS011;65329;52.544;4.662;2023-03-14T13:11:10;2.60;;;1.15;;
76495;SDS011;65329;52.544;4.662;2023-03-14T13:13:47;6.22;;;0.80;;
76495;SDS011;65329;52.544;4.662;2023-03-14T13:16:17;5.15;;;0.60;;
76495;SDS011;65329;52.544;4.662;2023-03-14T13:18:47;7.30;;;1.17;;
76495;SDS011;65329;52.544;4.662;2023-03-14T13:21:21;4.47;;;0.55;;
76495;SDS011;65329;52.544;4.662;2023-03-14T13:23:59;7.28;;;1.48;;
76495;SDS011;65329;52.544;4.662;2023-03-14T13:26:35;3.58;;;0.65;;
76495;SDS011;65329;52.544;4.662;2023-03-14T13:29:17;2.30;;;0.80;;
76495;SDS011;65329;52.544;4.662;2023-03-14T13:31:48;5.03;;;1.30;;
76495;SDS011;65329;52.544;4.662;2023-03-14T13:34:18;3.33;;;0.98;;
76495;SDS011;65329;52.544;4.662;2023-03-14T13:36:46;8.00;;;1.38;;
76495;SDS011;65329;52.544;4.662;2023-03-14T13:39:20;3.85;;;0.80;;
76495;SDS011;65329;52.544;4.662;2023-03-14T13:41:51;4.93;;;1.10;;
76495;SDS011;65329;52.544;4.662;2023-03-14T13:46:58;6.90;;;1.00;;
76495;SDS011;65329;52.544;4.662;2023-03-14T13:49:28;4.38;;;0.63;;
76495;SDS011;65329;52.544;4.662;2023-03-14T13:51:59;2.90;;;0.60;;
76495;SDS011;65329;52.544;4.662;2023-03-14T13:54:26;2.95;;;0.68;;
76495;SDS011;65329;52.544;4.662;2023-03-14T13:57:05;2.83;;;0.60;;
76495;SDS011;65329;52.544;4.662;2023-03-14T13:59:33;5.18;;;1.05;;
76495;SDS011;65329;52.544;4.662;2023-03-14T14:02:09;5.40;;;1.17;;
76495;SDS011;65329;52.544;4.662;2023-03-14T14:04:43;5.20;;;1.30;;
76495;SDS011;65329;52.544;4.662;2023-03-14T14:07:13;6.78;;;0.98;;
76495;SDS011;65329;52.544;4.662;2023-03-14T14:09:48;2.50;;;0.40;;
76495;SDS011;65329;52.544;4.662;2023-03-14T14:14:59;3.75;;;0.60;;
76495;SDS011;65329;52.544;4.662;2023-03-14T14:17:32;2.75;;;0.55;;
76495;SDS011;65329;52.544;4.662;2023-03-14T14:20:06;3.58;;;0.70;;
76495;SDS011;65329;52.544;4.662;2023-03-14T14:22:39;6.07;;;0.90;;
76495;SDS011;65329;52.544;4.662;2023-03-14T14:25:11;4.45;;;1.25;;
76495;SDS011;65329;52.544;4.662;2023-03-14T14:27:41;5.00;;;0.75;;
76495;SDS011;65329;52.544;4.662;2023-03-14T14:32:46;5.60;;;1.08;;
76495;SDS011;65329;52.544;4.662;2023-03-14T14:35:33;5.65;;;0.80;;
76495;SDS011;65329;52.544;4.662;2023-03-14T14:38:02;6.18;;;1.13;;
76495;SDS011;65329;52.544;4.662;2023-03-14T14:40:43;7.53;;;1.25;;
76495;SDS011;65329;52.544;4.662;2023-03-14T14:43:18;4.38;;;1.13;;
76495;SDS011;65329;52.544;4.662;2023-03-14T14:45:49;4.97;;;0.88;;
76495;SDS011;65329;52.544;4.662;2023-03-14T14:48:26;5.53;;;1.05;;
76495;SDS011;65329;52.544;4.662;2023-03-14T14:50:56;1.88;;;0.63;;
76495;SDS011;65329;52.544;4.662;2023-03-14T14:53:29;4.45;;;0.90;;
76495;SDS011;65329;52.544;4.662;2023-03-14T14:55:59;6.40;;;1.15;;
76495;SDS011;65329;52.544;4.662;2023-03-14T15:01:22;11.00;;;2.97;;
76495;SDS011;65329;52.544;4.662;2023-03-14T15:06:19;6.65;;;1.05;;
76495;SDS011;65329;52.544;4.662;2023-03-14T15:08:48;8.73;;;0.90;;
76495;SDS011;65329;52.544;4.662;2023-03-14T15:11:16;8.65;;;0.77;;
76495;SDS011;65329;52.544;4.662;2023-03-14T15:13:44;6.95;;;1.00;;
76495;SDS011;65329;52.544;4.662;2023-03-14T15:16:11;7.47;;;0.75;;
76495;SDS011;65329;52.544;4.662;2023-03-14T15:18:40;4.88;;;0.95;;
76495;SDS011;65329;52.544;4.662;2023-03-14T15:21:09;3.17;;;0.73;;
76495;SDS011;65329;52.544;4.662;2023-03-14T15:23:37;4.13;;;1.08;;
76495;SDS011;65329;52.544;4.662;2023-03-14T15:26:09;4.60;;;1.02;;
76495;SDS011;65329;52.544;4.662;2023-03-14T15:28:40;5.07;;;0.70;;
76495;SDS011;65329;52.544;4.662;2023-03-14T15:31:08;5.78;;;1.38;;
76495;SDS011;65329;52.544;4.662;2023-03-14T15:33:43;4.75;;;0.85;;
76495;SDS011;65329;52.544;4.662;2023-03-14T15:36:15;7.65;;;0.75;;
76495;SDS011;65329;52.544;4.662;2023-03-14T15:38:47;3.95;;;0.85;;
76495;SDS011;65329;52.544;4.662;2023-03-14T15:41:15;4.63;;;1.02;;
76495;SDS011;65329;52.544;4.662;2023-03-14T15:43:43;9.25;;;1.45;;
76495;SDS011;65329;52.544;4.662;2023-03-14T15:46:10;4.82;;;0.68;;
76495;SDS011;65329;52.544;4.662;2023-03-14T15:48:39;10.88;;;1.65;;
76495;SDS011;65329;52.544;4.662;2023-03-14T15:51:06;4.38;;;0.75;;
76495;SDS011;65329;52.544;4.662;2023-03-14T15:53:33;3.45;;;1.40;;
76495;SDS011;65329;52.544;4.662;2023-03-14T15:56:04;5.22;;;0.55;;
76495;SDS011;65329;52.544;4.662;2023-03-14T15:58:35;6.05;;;0.75;;
76495;SDS011;65329;52.544;4.662;2023-03-14T16:01:02;8.18;;;1.20;;
76495;SDS011;65329;52.544;4.662;2023-03-14T16:03:29;5.03;;;1.15;;
76495;SDS011;65329;52.544;4.662;2023-03-14T16:05:56;6.20;;;1.08;;
76495;SDS011;65329;52.544;4.662;2023-03-14T16:08:24;10.38;;;1.20;;
76495;SDS011;65329;52.544;4.662;2023-03-14T16:10:52;6.85;;;0.90;;
76495;SDS011;65329;52.544;4.662;2023-03-14T16:13:19;6.82;;;0.77;;
76495;SDS011;65329;52.544;4.662;2023-03-14T16:15:59;5.22;;;0.55;;
76495;SDS011;65329;52.544;4.662;2023-03-14T16:18:28;7.32;;;1.00;;
76495;SDS011;65329;52.544;4.662;2023-03-14T16:20:58;4.50;;;1.10;;
76495;SDS011;65329;52.544;4.662;2023-03-14T16:23:27;6.47;;;1.20;;
76495;SDS011;65329;52.544;4.662;2023-03-14T16:25:55;6.05;;;1.35;;
76495;SDS011;65329;52.544;4.662;2023-03-14T16:28:23;5.40;;;0.88;;
76495;SDS011;65329;52.544;4.662;2023-03-14T16:30:51;5.75;;;0.93;;
76495;SDS011;65329;52.544;4.662;2023-03-14T16:33:18;12.50;;;1.40;;
76495;SDS011;65329;52.544;4.662;2023-03-14T16:35:52;9.95;;;1.10;;
76495;SDS011;65329;52.544;4.662;2023-03-14T16:38:21;6.68;;;1.23;;
76495;SDS011;65329;52.544;4.662;2023-03-14T16:41:00;6.07;;;0.95;;
76495;SDS011;65329;52.544;4.662;2023-03-14T16:43:29;9.45;;;1.15;;
76495;SDS011;65329;52.544;4.662;2023-03-14T16:45:57;6.28;;;0.93;;
76495;SDS011;65329;52.544;4.662;2023-03-14T16:48:26;6.30;;;1.08;;